Time;durP1;ratioP1;P1;durP2;ratioP2;P2;SDS_P1;SDS_P2;PMS_P1;PMS_P2;Temp;Humidity;BMP_temperature;BMP_pressure;BME280_temperature;BME280_humidity;BME280_pressure;Samples;Min_cycle;Max_cycle;Signal;HPM_P1;HPM_P2
2023/10/14 00:02:24;;;;;;;;;;;13.20;99.90;;;;;;4997529;28;19959;-96
2023/10/14 00:08:03;;;;;;;;;;;13.10;99.90;;;;;;4930014;28;19918;-96
2023/10/14 00:10:41;;;;;;;;;;;12.90;99.90;;;;;;4991010;28;19917;-96
2023/10/14 00:13:16;;;;;;;;;;;13.60;99.90;;;;;;4973716;28;19921;-95
2023/10/14 00:15:46;;;;;;;;;;;13.00;99.90;;;;;;4978118;28;19918;-94
2023/10/14 00:18:20;;;;;;;;;;;12.80;99.90;;;;;;4975126;28;20021;-95
2023/10/14 00:20:54;;;;;;;;;;;12.60;99.90;;;;;;4966041;28;20013;-95
2023/10/14 00:23:34;;;;;;;;;;;13.30;99.90;;;;;;4963701;28;19917;-95
2023/10/14 00:25:59;;;;;;;;;;;12.60;99.90;;;;;;4962539;28;19921;-95
2023/10/14 00:28:25;;;;;;;;;;;12.60;99.90;;;;;;4982111;28;19917;-95
2023/10/14 00:30:55;;;;;;;;;;;12.10;99.90;;;;;;4975763;28;19924;-96
2023/10/14 00:33:27;;;;;;;;;;;12.50;99.90;;;;;;4977911;28;19925;-95
2023/10/14 00:35:56;;;;;;;;;;;13.00;99.90;;;;;;4980511;28;19968;-95
2023/10/14 00:38:34;;;;;;;;;;;12.50;99.90;;;;;;4980268;28;19917;-96
2023/10/14 00:44:47;;;;;;;;;;;12.40;99.90;;;;;;4942896;28;19929;-95
2023/10/14 00:47:59;;;;;;;;;;;12.30;99.90;;;;;;4956865;28;20426;-95
2023/10/14 00:54:10;;;;;;;;;;;12.20;99.90;;;;;;4951768;28;19918;-96
2023/10/14 01:07:50;;;;;;;;;;;12.00;99.90;;;;;;4893287;29;19966;-95
2023/10/14 01:14:42;;;;;;;;;;;11.80;99.90;;;;;;4802354;29;19923;-96
2023/10/14 01:17:41;;;;;;;;;;;12.00;99.90;;;;;;4912952;29;19922;-96
2023/10/14 01:46:00;;;;;;;;;;;;;;;;;;;;;
2023/10/14 03:12:21;;;;;;;;;;;10.30;99.90;;;;;;4854535;29;20003;-96
2023/10/14 03:18:54;;;;;;;;;;;10.50;99.90;;;;;;4863564;29;19996;-96
2023/10/14 03:59:48;;;;;;;;;;;;;;;;;;;;;
2023/10/14 04:12:08;;;;;;;;;;;10.40;99.90;;;;;;4750187;30;19925;-96
2023/10/14 04:15:33;;;;;;;;;;;10.40;99.90;;;;;;4724449;29;19922;-96
2023/10/14 04:36:53;;;;;;;;;;;;;;;;;;;;;
2023/10/14 04:56:57;;;;;;;;;;;10.60;99.90;;;;;;4895121;29;19926;-96
2023/10/14 05:17:16;;;;;;;;;;;10.00;99.90;;;;;;4786193;29;19958;-96
2023/10/14 05:23:59;;;;;;;;;;;;;;;;;;;;;
2023/10/14 05:39:31;;;;;;;;;;;;;;;;;;;;;
2023/10/14 05:56:57;;;;;;;;;;;;;;;;;;;;;
2023/10/14 06:07:50;;;;;;;;;;;;;;;;;;;;;
2023/10/14 06:13:09;;;;;;;;;;;10.30;99.90;;;;;;4726597;30;19925;-96
2023/10/14 06:16:04;;;;;;;;;;;;;;;;;;;;;
2023/10/14 06:29:55;;;;;;;;;;;10.20;99.90;;;;;;4758036;29;20025;-96
2023/10/14 06:37:18;;;;;;;;;;;9.90;99.90;;;;;;4835757;29;19921;-96
2023/10/14 06:51:42;;;;;;;;;;;10.30;99.90;;;;;;4716584;30;19976;-96
2023/10/14 07:18:30;;;;;;;;;;;11.20;99.90;;;;;;5069287;23;19931;-94
2023/10/14 07:20:57;;;;;;;;;;;11.30;99.90;;;;;;5022671;28;20283;-94
2023/10/14 07:23:23;;;;;;;;;;;11.40;99.90;;;;;;5056349;28;19924;-96
2023/10/14 07:25:57;;;;;;;;;;;11.40;99.90;;;;;;5022041;28;19916;-96
2023/10/14 07:28:23;;;;;;;;;;;11.50;99.90;;;;;;5049179;28;19919;-94
2023/10/14 07:30:49;;;;;;;;;;;11.60;99.90;;;;;;5028651;28;19988;-93
2023/10/14 07:33:16;;;;;;;;;;;11.60;99.90;;;;;;5058460;28;19922;-96
2023/10/14 07:35:43;;;;;;;;;;;11.80;99.90;;;;;;5061133;28;19916;-95
2023/10/14 07:38:08;;;;;;;;;;;11.80;99.90;;;;;;5029382;28;20359;-93
2023/10/14 07:40:38;;;;;;;;;;;12.00;99.90;;;;;;5044979;28;19970;-95
2023/10/14 07:43:05;;;;;;;;;;;12.20;99.90;;;;;;5042332;28;19956;-94
2023/10/14 07:45:35;;;;;;;;;;;12.50;99.90;;;;;;5043104;28;19923;-94
2023/10/14 07:48:09;;;;;;;;;;;12.70;99.90;;;;;;5037371;28;19960;-93
2023/10/14 07:50:35;;;;;;;;;;;12.40;99.90;;;;;;5036115;28;19920;-93
2023/10/14 07:53:07;;;;;;;;;;;13.20;99.90;;;;;;5042203;28;20343;-92
2023/10/14 07:55:35;;;;;;;;;;;13.50;99.90;;;;;;5025654;28;19916;-94
2023/10/14 07:58:01;;;;;;;;;;;13.50;99.90;;;;;;5047250;28;19924;-96
2023/10/14 08:00:37;;;;;;;;;;;13.60;99.90;;;;;;5062006;28;19916;-93
2023/10/14 08:03:06;;;;;;;;;;;14.10;99.90;;;;;;5050470;28;19923;-91
2023/10/14 08:05:38;;;;;;;;;;;14.50;99.90;;;;;;5042817;28;19963;-91
2023/10/14 08:08:06;;;;;;;;;;;14.60;99.90;;;;;;5033216;28;20580;-91
2023/10/14 08:10:32;;;;;;;;;;;14.40;99.90;;;;;;5061612;28;19959;-94
2023/10/14 08:13:01;;;;;;;;;;;14.20;99.90;;;;;;5044008;28;20440;-92
2023/10/14 08:15:29;;;;;;;;;;;14.00;99.90;;;;;;5039912;28;20006;-91
2023/10/14 08:17:58;;;;;;;;;;;13.80;99.90;;;;;;5053901;28;19924;-95
2023/10/14 08:20:24;;;;;;;;;;;13.50;99.90;;;;;;5040248;28;19920;-95
2023/10/14 08:22:49;;;;;;;;;;;13.50;99.90;;;;;;5045887;28;20518;-96
2023/10/14 08:25:18;;;;;;;;;;;13.40;99.90;;;;;;5074391;28;20002;-94
2023/10/14 08:27:47;;;;;;;;;;;13.30;99.90;;;;;;5022831;28;19916;-93
2023/10/14 08:30:13;;;;;;;;;;;13.40;99.90;;;;;;5031956;28;19923;-96
2023/10/14 08:32:39;;;;;;;;;;;13.20;99.90;;;;;;5054147;28;19920;-96
2023/10/14 08:35:15;;;;;;;;;;;13.20;99.90;;;;;;5024646;28;19920;-91
2023/10/14 08:37:47;;;;;;;;;;;13.20;99.90;;;;;;5040438;28;20398;-93
2023/10/14 08:40:17;;;;;;;;;;;13.20;99.90;;;;;;5040068;28;19989;-90
2023/10/14 08:42:48;;;;;;;;;;;13.30;99.90;;;;;;5037586;28;19924;-92
2023/10/14 08:45:33;;;;;;;;;;;;;;;;;;;;;
2023/10/14 08:48:00;;;;;;;;;;;13.40;99.90;;;;;;5026050;28;19917;-90
2023/10/14 08:50:29;;;;;;;;;;;13.50;99.90;;;;;;5022879;28;19969;-92
2023/10/14 08:52:56;;;;;;;;;;;13.50;99.90;;;;;;5044500;28;19917;-93
2023/10/14 08:55:24;;;;;;;;;;;13.60;99.90;;;;;;5026684;28;19959;-92
2023/10/14 08:57:50;;;;;;;;;;;13.60;99.90;;;;;;5039007;28;19921;-93
2023/10/14 09:00:19;;;;;;;;;;;13.70;99.90;;;;;;5049160;28;20421;-96
2023/10/14 09:02:48;;;;;;;;;;;13.70;99.90;;;;;;5042545;28;20356;-96
2023/10/14 09:05:16;;;;;;;;;;;13.80;99.90;;;;;;5039939;28;19916;-91
2023/10/14 09:07:46;;;;;;;;;;;13.90;99.90;;;;;;5060508;28;20014;-95
2023/10/14 09:10:12;;;;;;;;;;;13.90;99.90;;;;;;5054652;28;19916;-93
2023/10/14 09:12:38;;;;;;;;;;;13.90;99.90;;;;;;5054692;28;20344;-94
2023/10/14 09:15:07;;;;;;;;;;;13.90;99.90;;;;;;5032850;28;19916;-96
2023/10/14 09:17:33;;;;;;;;;;;13.90;99.90;;;;;;5049839;28;19921;-94
2023/10/14 09:19:58;;;;;;;;;;;13.90;99.90;;;;;;5025805;28;20049;-92
2023/10/14 09:22:25;;;;;;;;;;;13.90;99.90;;;;;;5043125;28;19916;-93
2023/10/14 09:24:52;;;;;;;;;;;14.00;99.90;;;;;;5038453;28;19916;-93
2023/10/14 09:27:19;;;;;;;;;;;13.80;99.90;;;;;;5023095;28;19967;-90
2023/10/14 09:29:45;;;;;;;;;;;13.70;99.90;;;;;;5033394;28;19915;-92
2023/10/14 09:32:11;;;;;;;;;;;13.30;99.90;;;;;;5070386;28;19917;-96
2023/10/14 09:34:41;;;;;;;;;;;13.00;99.90;;;;;;5037264;28;19917;-94
2023/10/14 09:37:10;;;;;;;;;;;12.70;99.90;;;;;;5057745;28;20429;-94
2023/10/14 09:39:48;;;;;;;;;;;12.50;99.90;;;;;;5040248;28;20061;-95
2023/10/14 09:42:15;;;;;;;;;;;12.40;99.90;;;;;;5055264;28;20375;-94
2023/10/14 09:44:44;;;;;;;;;;;11.60;99.90;;;;;;5042860;28;19923;-94
2023/10/14 09:47:13;;;;;;;;;;;12.10;99.90;;;;;;5040553;28;19963;-93
2023/10/14 09:49:39;;;;;;;;;;;12.20;99.90;;;;;;5038565;28;19959;-94
2023/10/14 09:52:06;;;;;;;;;;;12.40;99.90;;;;;;5038319;28;19927;-93
2023/10/14 09:54:35;;;;;;;;;;;13.10;99.90;;;;;;5009538;28;19928;-95
2023/10/14 09:57:10;;;;;;;;;;;12.00;99.90;;;;;;5039380;28;19972;-93
2023/10/14 09:59:37;;;;;;;;;;;12.90;99.90;;;;;;5063733;28;19916;-92
2023/10/14 10:02:11;;;;;;;;;;;12.20;99.90;;;;;;5042422;28;19917;-91
2023/10/14 10:04:47;;;;;;;;;;;13.10;99.90;;;;;;5030304;28;19923;-92
2023/10/14 10:13:27;;;;;;;;;;;13.00;99.90;;;;;;5016476;28;19970;-92
2023/10/14 10:16:02;;;;;;;;;;;12.70;99.90;;;;;;5040672;28;19960;-93
2023/10/14 10:18:56;;;;;;;;;;;12.60;99.90;;;;;;5036946;28;19925;-90
2023/10/14 10:21:28;;;;;;;;;;;12.40;99.90;;;;;;5055165;28;19916;-96
2023/10/14 10:23:57;;;;;;;;;;;12.10;99.90;;;;;;5042542;28;19916;-93
2023/10/14 10:26:25;;;;;;;;;;;12.10;99.90;;;;;;5034398;28;19919;-96
2023/10/14 10:28:51;;;;;;;;;;;12.10;99.90;;;;;;5049835;28;19923;-92
2023/10/14 10:31:20;;;;;;;;;;;12.20;99.90;;;;;;5026058;28;19916;-92
2023/10/14 10:33:56;;;;;;;;;;;12.30;99.90;;;;;;5045306;28;19923;-94
2023/10/14 10:36:24;;;;;;;;;;;12.50;99.90;;;;;;5038994;28;19927;-96
2023/10/14 10:38:53;;;;;;;;;;;12.60;99.90;;;;;;5040226;28;19928;-93
2023/10/14 10:41:23;;;;;;;;;;;12.80;99.90;;;;;;5044862;28;20283;-94
2023/10/14 10:43:50;;;;;;;;;;;12.90;99.90;;;;;;5040576;28;19916;-89
2023/10/14 10:46:28;;;;;;;;;;;13.00;99.90;;;;;;5037266;28;19924;-91
2023/10/14 10:48:54;;;;;;;;;;;13.10;99.90;;;;;;5049663;28;20671;-91
2023/10/14 10:51:21;;;;;;;;;;;13.10;99.90;;;;;;5022354;28;19966;-91
2023/10/14 10:53:49;;;;;;;;;;;13.20;99.90;;;;;;5021962;28;19951;-92
2023/10/14 10:56:18;;;;;;;;;;;13.30;99.90;;;;;;5038183;28;19916;-90
2023/10/14 10:58:44;;;;;;;;;;;13.30;99.90;;;;;;5039109;28;20376;-91
2023/10/14 11:01:11;;;;;;;;;;;13.40;99.90;;;;;;5022134;28;19961;-92
2023/10/14 11:03:36;;;;;;;;;;;13.60;99.90;;;;;;5039273;28;19969;-91
2023/10/14 11:06:04;;;;;;;;;;;13.40;99.90;;;;;;5058016;28;19917;-93
2023/10/14 11:08:30;;;;;;;;;;;13.00;99.90;;;;;;5041267;28;19916;-94
2023/10/14 11:10:57;;;;;;;;;;;12.90;99.90;;;;;;5041060;28;20239;-93
2023/10/14 11:13:26;;;;;;;;;;;12.80;99.90;;;;;;5042887;28;19983;-93
2023/10/14 11:15:51;;;;;;;;;;;12.70;99.90;;;;;;5042314;28;19924;-92
2023/10/14 11:18:18;;;;;;;;;;;12.50;99.90;;;;;;5031806;28;19966;-95
2023/10/14 11:20:45;;;;;;;;;;;12.40;99.90;;;;;;5034120;28;19920;-94
2023/10/14 11:23:11;;;;;;;;;;;12.40;99.90;;;;;;5064702;28;19920;-94
2023/10/14 11:25:40;;;;;;;;;;;12.60;99.90;;;;;;5040788;28;20260;-96
2023/10/14 11:28:14;;;;;;;;;;;12.70;99.90;;;;;;5049518;28;19917;-92
2023/10/14 11:30:41;;;;;;;;;;;12.90;99.90;;;;;;5047123;28;20073;-91
2023/10/14 11:33:11;;;;;;;;;;;13.00;99.90;;;;;;5039881;28;19955;-90
2023/10/14 11:35:37;;;;;;;;;;;13.00;99.90;;;;;;5039299;28;19920;-88
2023/10/14 11:38:06;;;;;;;;;;;12.80;99.90;;;;;;5039870;28;19920;-89
2023/10/14 11:40:35;;;;;;;;;;;12.70;99.90;;;;;;5056541;28;20355;-89
2023/10/14 11:43:02;;;;;;;;;;;12.70;99.90;;;;;;5028653;28;19924;-93
2023/10/14 11:45:27;;;;;;;;;;;12.20;99.90;;;;;;5032732;28;20015;-91
2023/10/14 11:47:53;;;;;;;;;;;12.70;99.90;;;;;;5033952;28;20355;-93
2023/10/14 11:50:19;;;;;;;;;;;12.80;99.90;;;;;;5039228;28;20327;-94
2023/10/14 11:52:47;;;;;;;;;;;12.60;99.90;;;;;;5046521;28;19951;-92
2023/10/14 11:55:14;;;;;;;;;;;12.90;99.90;;;;;;5070873;28;19973;-94
2023/10/14 11:57:43;;;;;;;;;;;13.10;99.90;;;;;;5023493;28;19928;-88
2023/10/14 12:00:10;;;;;;;;;;;13.20;99.90;;;;;;5051138;28;19924;-94
2023/10/14 12:02:37;;;;;;;;;;;13.30;99.90;;;;;;5037131;28;20486;-89
2023/10/14 12:05:03;;;;;;;;;;;13.30;99.90;;;;;;5048176;28;19943;-91
2023/10/14 12:07:32;;;;;;;;;;;13.40;99.90;;;;;;5021199;28;20126;-90
2023/10/14 12:09:59;;;;;;;;;;;13.50;99.90;;;;;;5053786;28;19916;-89
2023/10/14 12:12:25;;;;;;;;;;;13.60;99.90;;;;;;5025452;28;20340;-90
2023/10/14 12:14:50;;;;;;;;;;;13.60;99.90;;;;;;5038326;28;19974;-89
2023/10/14 12:17:16;;;;;;;;;;;13.60;99.90;;;;;;5015952;28;19928;-91
2023/10/14 12:19:42;;;;;;;;;;;13.40;99.90;;;;;;5038867;28;19938;-95
2023/10/14 12:22:08;;;;;;;;;;;13.40;99.90;;;;;;5023478;28;19920;-91
2023/10/14 12:24:34;;;;;;;;;;;13.30;99.90;;;;;;5045124;28;19930;-95
2023/10/14 12:27:01;;;;;;;;;;;13.30;99.90;;;;;;5024483;28;19956;-91
2023/10/14 12:29:27;;;;;;;;;;;13.30;99.90;;;;;;5034473;28;19942;-90
2023/10/14 12:31:54;;;;;;;;;;;13.20;99.90;;;;;;5029273;28;20004;-93
2023/10/14 12:34:19;;;;;;;;;;;13.20;99.90;;;;;;5038362;28;20383;-91
2023/10/14 12:36:45;;;;;;;;;;;13.20;99.90;;;;;;5020332;28;19916;-88
2023/10/14 12:39:26;;;;;;;;;;;13.10;99.90;;;;;;5037724;28;19920;-90
2023/10/14 12:41:53;;;;;;;;;;;13.10;99.90;;;;;;5039252;28;19920;-88
2023/10/14 12:44:19;;;;;;;;;;;13.10;99.90;;;;;;5049893;28;20271;-92
2023/10/14 12:46:45;;;;;;;;;;;13.00;99.90;;;;;;5047380;28;19916;-92
2023/10/14 12:49:11;;;;;;;;;;;13.00;99.90;;;;;;5037780;28;20030;-94
2023/10/14 12:51:44;;;;;;;;;;;13.00;99.90;;;;;;5042704;28;19916;-93
2023/10/14 12:54:19;;;;;;;;;;;13.00;99.90;;;;;;5044950;28;19916;-91
2023/10/14 12:56:45;;;;;;;;;;;13.10;99.90;;;;;;5035716;28;19924;-90
2023/10/14 12:59:14;;;;;;;;;;;13.10;99.90;;;;;;5040364;28;19960;-89
2023/10/14 13:01:58;;;;;;;;;;;13.00;99.90;;;;;;5024473;28;19927;-92
2023/10/14 13:04:27;;;;;;;;;;;13.00;99.90;;;;;;5041455;28;19967;-93
2023/10/14 13:06:53;;;;;;;;;;;12.20;99.90;;;;;;5026793;28;19939;-90
2023/10/14 13:09:19;;;;;;;;;;;12.90;99.90;;;;;;5056627;28;19923;-91
2023/10/14 13:11:45;;;;;;;;;;;12.80;99.90;;;;;;5041654;28;19916;-93
2023/10/14 13:14:25;;;;;;;;;;;12.50;99.90;;;;;;5023421;28;20363;-88
2023/10/14 13:16:51;;;;;;;;;;;12.40;99.90;;;;;;5047162;28;20003;-93
2023/10/14 13:19:18;;;;;;;;;;;12.30;99.90;;;;;;5024393;28;20010;-90
2023/10/14 13:21:44;;;;;;;;;;;12.20;99.90;;;;;;5046889;28;19916;-94
2023/10/14 13:24:11;;;;;;;;;;;12.30;99.90;;;;;;5035427;28;19931;-94
2023/10/14 13:26:38;;;;;;;;;;;12.30;99.90;;;;;;5042597;28;20035;-93
2023/10/14 13:29:05;;;;;;;;;;;12.30;99.90;;;;;;5027584;28;19916;-91
2023/10/14 13:31:30;;;;;;;;;;;12.20;99.90;;;;;;5054839;28;19920;-92
2023/10/14 13:33:56;;;;;;;;;;;12.50;99.90;;;;;;5043351;28;19972;-92
2023/10/14 13:36:22;;;;;;;;;;;12.20;99.90;;;;;;5029564;28;19916;-96
2023/10/14 13:38:48;;;;;;;;;;;12.20;99.90;;;;;;5039787;28;19948;-91
2023/10/14 13:41:14;;;;;;;;;;;12.20;99.90;;;;;;5033507;28;19921;-94
2023/10/14 13:43:43;;;;;;;;;;;12.30;99.90;;;;;;5019880;28;19920;-93
2023/10/14 13:46:09;;;;;;;;;;;12.30;99.90;;;;;;5035888;28;19991;-95
2023/10/14 13:48:34;;;;;;;;;;;12.30;99.90;;;;;;5018522;28;19974;-93
2023/10/14 13:51:01;;;;;;;;;;;12.30;99.90;;;;;;5021393;28;19920;-93
2023/10/14 13:53:32;;;;;;;;;;;12.30;99.90;;;;;;5038474;28;19923;-92
2023/10/14 13:56:01;;;;;;;;;;;12.20;99.90;;;;;;5053596;28;19916;-94
2023/10/14 13:58:28;;;;;;;;;;;12.20;99.90;;;;;;5051289;28;19920;-94
2023/10/14 14:00:55;;;;;;;;;;;12.20;99.90;;;;;;5057510;28;19959;-95
2023/10/14 14:03:28;;;;;;;;;;;12.20;99.90;;;;;;5047434;28;19923;-92
2023/10/14 14:05:54;;;;;;;;;;;12.10;99.90;;;;;;5037770;28;19917;-92
2023/10/14 14:08:25;;;;;;;;;;;12.10;99.90;;;;;;5033290;28;20367;-96
2023/10/14 14:10:52;;;;;;;;;;;11.80;99.90;;;;;;5019324;28;19981;-94
2023/10/14 14:13:18;;;;;;;;;;;12.10;99.90;;;;;;5067785;28;19920;-96
2023/10/14 14:15:44;;;;;;;;;;;12.20;99.90;;;;;;5034666;28;19916;-93
2023/10/14 14:18:11;;;;;;;;;;;12.20;99.90;;;;;;5050462;28;19963;-93
2023/10/14 14:20:36;;;;;;;;;;;12.20;99.90;;;;;;5035184;28;19969;-93
2023/10/14 14:23:02;;;;;;;;;;;12.20;99.90;;;;;;5013422;28;20391;-92
2023/10/14 14:25:28;;;;;;;;;;;12.00;99.90;;;;;;5017858;28;19916;-89
2023/10/14 14:27:55;;;;;;;;;;;11.90;99.90;;;;;;5035695;28;20314;-93
2023/10/14 14:30:21;;;;;;;;;;;11.80;99.90;;;;;;5032891;28;20012;-93
2023/10/14 14:32:51;;;;;;;;;;;11.70;99.90;;;;;;5034323;28;20431;-91
2023/10/14 14:35:16;;;;;;;;;;;11.60;99.90;;;;;;5052065;28;20003;-93
2023/10/14 14:37:46;;;;;;;;;;;11.20;99.90;;;;;;5034135;28;20005;-91
2023/10/14 14:40:13;;;;;;;;;;;11.20;99.90;;;;;;5038285;28;19990;-92
2023/10/14 14:42:45;;;;;;;;;;;11.20;99.90;;;;;;5038644;28;19920;-94
2023/10/14 14:45:13;;;;;;;;;;;11.10;99.90;;;;;;5037002;28;19916;-94
2023/10/14 14:47:39;;;;;;;;;;;11.10;99.90;;;;;;5053659;28;19965;-92
2023/10/14 14:50:06;;;;;;;;;;;11.10;99.90;;;;;;5040143;28;19987;-95
2023/10/14 14:52:32;;;;;;;;;;;11.10;99.90;;;;;;5045271;28;19946;-95
2023/10/14 14:54:58;;;;;;;;;;;11.10;99.90;;;;;;5024436;28;19916;-95
2023/10/14 14:57:24;;;;;;;;;;;11.10;99.90;;;;;;5027829;28;20359;-93
2023/10/14 14:59:50;;;;;;;;;;;10.10;99.90;;;;;;5022557;28;20188;-93
2023/10/14 15:02:16;;;;;;;;;;;11.10;99.90;;;;;;5022170;28;19928;-95
2023/10/14 15:04:43;;;;;;;;;;;11.20;99.90;;;;;;5046001;28;19916;-92
2023/10/14 15:07:09;;;;;;;;;;;11.20;99.90;;;;;;5039776;28;20003;-92
2023/10/14 15:09:36;;;;;;;;;;;10.90;99.90;;;;;;5039482;28;19960;-91
2023/10/14 15:12:05;;;;;;;;;;;11.20;99.90;;;;;;5021244;28;20014;-92
2023/10/14 15:14:30;;;;;;;;;;;11.30;99.90;;;;;;5037204;28;20378;-92
2023/10/14 15:16:56;;;;;;;;;;;11.40;99.90;;;;;;5045181;28;19924;-93
2023/10/14 15:19:22;;;;;;;;;;;11.50;99.90;;;;;;5018900;28;19921;-93
2023/10/14 15:21:48;;;;;;;;;;;11.60;99.90;;;;;;5019896;28;20287;-89
2023/10/14 15:24:14;;;;;;;;;;;11.70;99.90;;;;;;5020913;28;19967;-95
2023/10/14 15:26:41;;;;;;;;;;;11.40;99.90;;;;;;5048852;28;19920;-94
2023/10/14 15:29:08;;;;;;;;;;;11.70;99.90;;;;;;5019774;28;19927;-94
2023/10/14 15:31:33;;;;;;;;;;;11.70;99.90;;;;;;5039806;28;19923;-93
2023/10/14 15:33:59;;;;;;;;;;;11.60;99.90;;;;;;5031979;28;20363;-95
2023/10/14 15:36:27;;;;;;;;;;;11.70;99.90;;;;;;5022659;28;20270;-91
2023/10/14 15:38:54;;;;;;;;;;;12.30;99.90;;;;;;5050290;28;19963;-92
2023/10/14 15:41:21;;;;;;;;;;;10.70;99.90;;;;;;5037797;28;19924;-92
2023/10/14 15:43:47;;;;;;;;;;;11.60;99.90;;;;;;5037385;28;19916;-90
2023/10/14 15:46:12;;;;;;;;;;;11.50;99.90;;;;;;5043608;28;19939;-93
2023/10/14 15:48:38;;;;;;;;;;;11.40;99.90;;;;;;5049469;28;19925;-91
2023/10/14 15:51:04;;;;;;;;;;;11.10;99.90;;;;;;5047835;28;20042;-94
2023/10/14 15:53:30;;;;;;;;;;;11.00;99.90;;;;;;5055502;28;19927;-94
2023/10/14 15:56:02;;;;;;;;;;;11.00;99.90;;;;;;5039208;28;19917;-94
2023/10/14 15:58:28;;;;;;;;;;;10.90;99.90;;;;;;5022952;28;19924;-93
2023/10/14 16:00:57;;;;;;;;;;;10.70;99.90;;;;;;5033309;28;20372;-90
2023/10/14 16:03:22;;;;;;;;;;;10.60;99.90;;;;;;5025301;28;19961;-95
2023/10/14 16:05:49;;;;;;;;;;;10.30;99.90;;;;;;5041735;28;20007;-91
2023/10/14 16:08:16;;;;;;;;;;;11.80;99.90;;;;;;5041365;28;19916;-93
2023/10/14 16:10:45;;;;;;;;;;;10.40;99.90;;;;;;5022242;28;19991;-92
2023/10/14 16:13:14;;;;;;;;;;;10.40;99.90;;;;;;5042941;28;19916;-96
2023/10/14 16:15:41;;;;;;;;;;;10.30;99.90;;;;;;5063183;28;19924;-96
2023/10/14 16:18:08;;;;;;;;;;;10.30;99.90;;;;;;5062522;28;19928;-95
2023/10/14 16:20:34;;;;;;;;;;;10.30;99.90;;;;;;5028742;28;19917;-95
2023/10/14 16:23:03;;;;;;;;;;;11.30;99.90;;;;;;5039412;28;19921;-93
2023/10/14 16:25:40;;;;;;;;;;;10.30;99.90;;;;;;5056642;28;19916;-93
2023/10/14 16:28:05;;;;;;;;;;;10.20;99.90;;;;;;5041930;28;19917;-95
2023/10/14 16:30:37;;;;;;;;;;;9.50;99.90;;;;;;5034080;28;19923;-95
2023/10/14 16:33:04;;;;;;;;;;;10.20;99.90;;;;;;5046813;28;20279;-94
2023/10/14 16:35:30;;;;;;;;;;;10.20;99.90;;;;;;5043260;28;19921;-91
2023/10/14 16:37:59;;;;;;;;;;;10.10;99.90;;;;;;5039111;28;19920;-95
2023/10/14 16:40:29;;;;;;;;;;;10.10;99.90;;;;;;5030619;28;19927;-93
2023/10/14 16:42:59;;;;;;;;;;;10.10;99.90;;;;;;5041373;28;19954;-93
2023/10/14 16:45:28;;;;;;;;;;;9.40;99.90;;;;;;5042583;28;20300;-95
2023/10/14 16:48:00;;;;;;;;;;;10.20;99.90;;;;;;5041072;28;19917;-90
2023/10/14 16:50:26;;;;;;;;;;;10.10;99.90;;;;;;5048923;28;19917;-93
2023/10/14 16:52:53;;;;;;;;;;;10.20;99.90;;;;;;5037493;28;19923;-93
2023/10/14 16:55:24;;;;;;;;;;;9.80;99.90;;;;;;5029793;28;20295;-94
2023/10/14 16:57:50;;;;;;;;;;;9.70;99.90;;;;;;5042208;28;19924;-95
2023/10/14 17:00:20;;;;;;;;;;;9.60;99.90;;;;;;5040412;28;20007;-94
2023/10/14 17:02:47;;;;;;;;;;;9.50;99.90;;;;;;5027205;28;19939;-94
2023/10/14 17:05:14;;;;;;;;;;;9.40;99.90;;;;;;5036020;28;19978;-96
2023/10/14 17:08:03;;;;;;;;;;;10.00;99.90;;;;;;5011880;28;19920;-94
2023/10/14 17:10:29;;;;;;;;;;;9.40;99.90;;;;;;5043175;28;20379;-95
2023/10/14 17:12:57;;;;;;;;;;;10.20;99.90;;;;;;5042682;28;20352;-95
2023/10/14 17:15:24;;;;;;;;;;;9.30;99.90;;;;;;5038757;28;19923;-95
2023/10/14 17:17:59;;;;;;;;;;;8.70;99.90;;;;;;5038699;28;19920;-95
2023/10/14 17:20:26;;;;;;;;;;;9.30;99.90;;;;;;5050610;28;19916;-94
2023/10/14 17:22:57;;;;;;;;;;;9.40;99.90;;;;;;5024822;28;19917;-96
2023/10/14 17:25:26;;;;;;;;;;;9.40;99.90;;;;;;5038838;28;19967;-92
2023/10/14 17:27:55;;;;;;;;;;;9.50;99.90;;;;;;5051329;28;19916;-92
2023/10/14 17:30:31;;;;;;;;;;;8.70;99.90;;;;;;5040507;28;20385;-93
2023/10/14 17:32:59;;;;;;;;;;;9.60;99.90;;;;;;5050567;28;20275;-93
2023/10/14 17:35:25;;;;;;;;;;;9.60;99.90;;;;;;5053295;28;19946;-93
2023/10/14 17:37:57;;;;;;;;;;;9.60;99.90;;;;;;5033358;28;19921;-94
2023/10/14 17:43:31;;;;;;;;;;;9.50;99.90;;;;;;5075311;28;19915;-91
2023/10/14 17:45:57;;;;;;;;;;;9.60;99.90;;;;;;5059873;28;20000;-91
2023/10/14 17:48:32;;;;;;;;;;;9.50;99.90;;;;;;5027030;28;20376;-93
2023/10/14 17:50:58;;;;;;;;;;;9.50;99.90;;;;;;5023648;28;20383;-95
2023/10/14 17:53:25;;;;;;;;;;;9.50;99.90;;;;;;5043250;28;19916;-93
2023/10/14 17:55:55;;;;;;;;;;;9.50;99.90;;;;;;5023338;28;19926;-95
2023/10/14 17:58:22;;;;;;;;;;;9.50;99.90;;;;;;5041298;28;19925;-93
2023/10/14 18:00:48;;;;;;;;;;;9.60;99.90;;;;;;5038113;28;19974;-92
2023/10/14 18:03:15;;;;;;;;;;;9.40;99.90;;;;;;5018613;28;19985;-94
2023/10/14 18:05:41;;;;;;;;;;;9.40;99.90;;;;;;5021280;28;19916;-92
2023/10/14 18:08:09;;;;;;;;;;;9.40;99.90;;;;;;5040402;28;20007;-93
2023/10/14 18:10:35;;;;;;;;;;;9.40;99.90;;;;;;5039457;28;19916;-94
2023/10/14 18:13:00;;;;;;;;;;;9.30;99.90;;;;;;5049299;28;19927;-95
2023/10/14 18:15:29;;;;;;;;;;;9.40;99.90;;;;;;5031343;28;20324;-96
2023/10/14 18:17:55;;;;;;;;;;;9.40;99.90;;;;;;5019715;28;20272;-95
2023/10/14 18:20:28;;;;;;;;;;;9.40;99.90;;;;;;5026861;28;20015;-95
2023/10/14 18:22:56;;;;;;;;;;;9.10;99.90;;;;;;5020491;28;19917;-94
2023/10/14 18:25:28;;;;;;;;;;;9.40;99.90;;;;;;5022193;28;19917;-93
2023/10/14 18:27:55;;;;;;;;;;;9.30;99.90;;;;;;5018976;28;19935;-92
2023/10/14 18:30:21;;;;;;;;;;;9.30;99.90;;;;;;5028251;28;19920;-94
2023/10/14 18:32:51;;;;;;;;;;;9.30;99.90;;;;;;5022049;28;19978;-93
2023/10/14 18:35:20;;;;;;;;;;;9.40;99.90;;;;;;5025102;28;19916;-94
2023/10/14 18:37:49;;;;;;;;;;;9.30;99.90;;;;;;5012873;28;19927;-93
2023/10/14 18:40:17;;;;;;;;;;;9.30;99.90;;;;;;5026262;28;20011;-95
2023/10/14 18:42:44;;;;;;;;;;;9.30;99.90;;;;;;5038190;28;19996;-93
2023/10/14 18:45:20;;;;;;;;;;;9.30;99.90;;;;;;5026419;28;19916;-92
2023/10/14 18:47:45;;;;;;;;;;;9.30;99.90;;;;;;5002934;28;19917;-94
2023/10/14 18:50:12;;;;;;;;;;;8.50;99.90;;;;;;5019120;28;19927;-92
2023/10/14 18:52:39;;;;;;;;;;;9.30;99.90;;;;;;5018666;28;19917;-94
2023/10/14 18:55:05;;;;;;;;;;;9.20;99.90;;;;;;5018963;28;20271;-93
2023/10/14 18:57:30;;;;;;;;;;;9.90;99.90;;;;;;5038490;28;19924;-91
2023/10/14 18:59:56;;;;;;;;;;;9.80;99.90;;;;;;5018594;28;19925;-93
2023/10/14 19:02:23;;;;;;;;;;;9.20;99.90;;;;;;5001109;28;19990;-92
2023/10/14 19:04:49;;;;;;;;;;;9.10;99.90;;;;;;5019452;28;19917;-92
2023/10/14 19:07:14;;;;;;;;;;;9.10;99.90;;;;;;5018245;28;19993;-92
2023/10/14 19:09:40;;;;;;;;;;;9.10;99.90;;;;;;5027939;28;19921;-93
2023/10/14 19:12:06;;;;;;;;;;;9.20;99.90;;;;;;5001781;28;20352;-89
2023/10/14 19:14:32;;;;;;;;;;;9.20;99.90;;;;;;5018172;28;19922;-92
2023/10/14 19:16:57;;;;;;;;;;;8.50;99.90;;;;;;4996416;28;19917;-92
2023/10/14 19:19:24;;;;;;;;;;;9.00;99.90;;;;;;5017435;28;19920;-94
2023/10/14 19:21:49;;;;;;;;;;;8.90;99.90;;;;;;5041331;28;19955;-91
2023/10/14 19:24:15;;;;;;;;;;;8.80;99.90;;;;;;5047482;28;19961;-92
2023/10/14 19:26:41;;;;;;;;;;;8.70;99.90;;;;;;5037587;28;19923;-91
2023/10/14 19:29:07;;;;;;;;;;;8.70;99.90;;;;;;5025411;28;20011;-93
2023/10/14 19:31:35;;;;;;;;;;;8.70;99.90;;;;;;5034412;28;20279;-93
2023/10/14 19:34:03;;;;;;;;;;;8.60;99.90;;;;;;5006522;28;19923;-95
2023/10/14 19:36:30;;;;;;;;;;;8.30;99.90;;;;;;5037091;28;20286;-95
2023/10/14 19:38:57;;;;;;;;;;;8.60;99.90;;;;;;5026458;28;19968;-95
2023/10/14 19:41:23;;;;;;;;;;;8.60;99.90;;;;;;5042462;28;19916;-94
2023/10/14 19:43:49;;;;;;;;;;;8.60;99.90;;;;;;5042166;28;19961;-93
2023/10/14 19:46:14;;;;;;;;;;;8.60;99.90;;;;;;5042172;28;19923;-96
2023/10/14 19:48:40;;;;;;;;;;;8.60;99.90;;;;;;5043212;28;19920;-96
2023/10/14 19:51:13;;;;;;;;;;;8.70;99.90;;;;;;5044986;28;20334;-96
2023/10/14 19:53:39;;;;;;;;;;;8.70;99.90;;;;;;5042758;28;20283;-94
2023/10/14 19:56:09;;;;;;;;;;;8.60;99.90;;;;;;5041923;28;19916;-94
2023/10/14 19:58:36;;;;;;;;;;;8.60;99.90;;;;;;5028505;28;19956;-95
2023/10/14 20:01:05;;;;;;;;;;;8.60;99.90;;;;;;5022031;28;19917;-95
2023/10/14 20:03:32;;;;;;;;;;;8.60;99.90;;;;;;5036733;28;19966;-92
2023/10/14 20:05:58;;;;;;;;;;;8.60;99.90;;;;;;5029962;28;19916;-95
2023/10/14 20:08:23;;;;;;;;;;;8.50;99.90;;;;;;5023754;28;19923;-93
2023/10/14 20:10:53;;;;;;;;;;;8.50;99.90;;;;;;5027411;28;19959;-93
2023/10/14 20:13:20;;;;;;;;;;;8.50;99.90;;;;;;5027804;28;19970;-94
2023/10/14 20:15:47;;;;;;;;;;;8.40;99.90;;;;;;5054564;28;20626;-96
2023/10/14 20:18:13;;;;;;;;;;;8.40;99.90;;;;;;5040997;28;20406;-94
2023/10/14 20:20:46;;;;;;;;;;;8.50;99.90;;;;;;5057040;28;19920;-95
2023/10/14 20:23:13;;;;;;;;;;;8.60;99.90;;;;;;5041637;28;19920;-94
2023/10/14 20:28:34;;;;;;;;;;;8.70;99.90;;;;;;5040045;28;19916;-93